Time;durP1;ratioP1;P1;durP2;ratioP2;P2;SDS_P1;SDS_P2;PMS_P1;PMS_P2;Temp;Humidity;BMP_temperature;BMP_pressure;BME280_temperature;BME280_humidity;BME280_pressure;Samples;Min_cycle;Max_cycle;Signal;HPM_P1;HPM_P2
2023/10/28 00:00:52;;;;;;;4.47;2.70;;;8.60;99.90;;;;;;5113564;28;20191;-78
2023/10/28 00:03:19;;;;;;;6.47;2.70;;;8.50;99.90;;;;;;5113944;28;20225;-79
2023/10/28 00:05:47;;;;;;;6.03;2.77;;;8.50;99.90;;;;;;5113580;28;20728;-79
2023/10/28 00:08:14;;;;;;;7.53;2.73;;;8.50;99.90;;;;;;5113756;28;20199;-79
2023/10/28 00:10:42;;;;;;;3.90;2.60;;;8.50;99.90;;;;;;5113612;28;20202;-78
2023/10/28 00:13:09;;;;;;;3.60;2.30;;;8.50;99.90;;;;;;5113462;28;20290;-77
2023/10/28 00:15:36;;;;;;;4.67;2.87;;;8.50;99.90;;;;;;5114013;28;20298;-77
2023/10/28 00:18:03;;;;;;;4.67;2.40;;;8.50;99.90;;;;;;5113505;28;20226;-77
2023/10/28 00:20:30;;;;;;;2.63;2.10;;;8.50;99.90;;;;;;5113336;28;20604;-78
2023/10/28 00:22:57;;;;;;;4.63;2.30;;;8.50;99.90;;;;;;5113282;28;20223;-77
2023/10/28 00:25:25;;;;;;;4.47;2.30;;;8.50;99.90;;;;;;5113610;28;20199;-77
2023/10/28 00:27:55;;;;;;;4.53;2.37;;;8.50;99.90;;;;;;5113383;28;20249;-77
2023/10/28 00:30:22;;;;;;;4.57;2.50;;;8.50;99.90;;;;;;5113426;28;20200;-77
2023/10/28 00:32:49;;;;;;;2.20;2.00;;;8.50;99.90;;;;;;5113320;28;20287;-76
2023/10/28 00:35:16;;;;;;;4.03;2.13;;;8.60;99.90;;;;;;5113063;28;20232;-76
2023/10/28 00:37:44;;;;;;;4.50;2.20;;;8.60;99.90;;;;;;5113382;28;20596;-77
2023/10/28 00:40:11;;;;;;;3.87;2.10;;;8.60;99.90;;;;;;5113225;28;20202;-76
2023/10/28 00:42:38;;;;;;;4.13;1.90;;;8.60;99.90;;;;;;5112910;28;20663;-76
2023/10/28 00:45:08;;;;;;;1.93;1.73;;;8.70;99.90;;;;;;5113328;28;20198;-77
2023/10/28 00:47:36;;;;;;;2.80;2.00;;;8.70;99.90;;;;;;5115618;28;20283;-76
2023/10/28 00:50:10;;;;;;;3.37;1.80;;;8.70;99.90;;;;;;5117270;28;20770;-76
2023/10/28 00:52:37;;;;;;;3.40;2.20;;;8.80;99.90;;;;;;5117189;28;20210;-76
2023/10/28 00:55:04;;;;;;;4.60;1.87;;;8.80;99.90;;;;;;5117503;28;20192;-76
2023/10/28 00:57:33;;;;;;;4.20;1.90;;;8.80;99.90;;;;;;5117318;28;20199;-77
2023/10/28 01:00:01;;;;;;;1.97;1.60;;;8.80;99.90;;;;;;5117252;28;20226;-75
2023/10/28 01:02:29;;;;;;;2.70;1.87;;;8.80;99.90;;;;;;5117187;28;20203;-75
2023/10/28 01:04:55;;;;;;;4.10;1.80;;;8.80;99.90;;;;;;5117055;28;20253;-76
2023/10/28 01:07:22;;;;;;;2.13;1.60;;;8.80;99.90;;;;;;5116834;28;20245;-75
2023/10/28 01:09:49;;;;;;;4.17;1.63;;;8.90;99.90;;;;;;5117113;28;20252;-76
2023/10/28 01:12:16;;;;;;;3.40;1.67;;;8.90;99.90;;;;;;5117098;28;20233;-76
2023/10/28 01:14:43;;;;;;;2.83;1.70;;;8.80;99.90;;;;;;5116942;28;20191;-75
2023/10/28 01:17:13;;;;;;;2.90;1.70;;;8.80;99.90;;;;;;5116851;28;20199;-76
2023/10/28 01:19:41;;;;;;;3.20;1.80;;;8.80;99.90;;;;;;5116817;28;20226;-76
2023/10/28 01:22:09;;;;;;;3.90;1.80;;;8.80;99.90;;;;;;5116672;28;20253;-76
2023/10/28 01:24:36;;;;;;;5.90;1.70;;;8.80;99.90;;;;;;5116769;28;20200;-76
2023/10/28 01:27:03;;;;;;;1.60;1.50;;;8.90;99.90;;;;;;5116462;28;20593;-77
2023/10/28 01:29:32;;;;;;;3.70;1.70;;;8.90;99.90;;;;;;5116650;28;20258;-77
2023/10/28 01:31:59;;;;;;;2.73;1.77;;;8.80;99.90;;;;;;5116537;28;20248;-76
2023/10/28 01:34:26;;;;;;;4.30;2.10;;;8.80;99.90;;;;;;5116292;28;20234;-77
2023/10/28 01:36:56;;;;;;;4.13;1.63;;;8.90;99.90;;;;;;5116614;28;20195;-77
2023/10/28 01:39:24;;;;;;;2.13;1.40;;;8.80;99.90;;;;;;5116517;28;20257;-77
2023/10/28 01:41:51;;;;;;;1.70;1.40;;;8.90;99.90;;;;;;5116453;28;20199;-77
2023/10/28 01:44:18;;;;;;;3.47;1.63;;;8.90;99.90;;;;;;5116378;28;20229;-77
2023/10/28 01:46:46;;;;;;;1.57;1.47;;;8.90;99.90;;;;;;5116167;28;20194;-78
2023/10/28 01:49:13;;;;;;;2.00;1.50;;;8.90;99.90;;;;;;5116164;28;20252;-78
2023/10/28 01:51:40;;;;;;;1.77;1.40;;;8.80;99.90;;;;;;5116397;28;20202;-77
2023/10/28 01:54:06;;;;;;;3.17;1.43;;;8.80;99.90;;;;;;5116313;28;20328;-78
2023/10/28 01:56:34;;;;;;;3.47;1.47;;;8.80;99.90;;;;;;5116224;28;20241;-78
2023/10/28 01:59:01;;;;;;;3.83;1.67;;;8.80;99.90;;;;;;5116193;28;20227;-78
2023/10/28 02:01:28;;;;;;;2.07;1.60;;;8.80;99.90;;;;;;5119630;28;20234;-78
2023/10/28 02:03:54;;;;;;;3.27;2.00;;;8.80;99.90;;;;;;5117805;28;20199;-78
2023/10/28 02:06:21;;;;;;;3.00;1.60;;;8.80;99.90;;;;;;5115791;28;20199;-78
2023/10/28 02:08:48;;;;;;;1.90;1.60;;;8.80;99.90;;;;;;5115979;28;20237;-78
2023/10/28 02:11:14;;;;;;;3.40;2.30;;;8.80;99.90;;;;;;5115738;28;20320;-78
2023/10/28 02:13:42;;;;;;;3.47;1.50;;;8.80;99.90;;;;;;5115752;28;20194;-77
2023/10/28 02:16:09;;;;;;;2.17;1.40;;;8.80;99.90;;;;;;5115566;28;20675;-78
2023/10/28 02:18:36;;;;;;;3.23;1.60;;;8.80;99.90;;;;;;5115599;28;20219;-76
2023/10/28 02:21:02;;;;;;;1.80;1.43;;;8.80;99.90;;;;;;5115533;28;20225;-77
2023/10/28 02:23:29;;;;;;;2.40;1.60;;;8.80;99.90;;;;;;5115610;28;20196;-77
2023/10/28 02:25:56;;;;;;;2.13;1.40;;;8.80;99.90;;;;;;5115348;28;20646;-77
2023/10/28 02:28:22;;;;;;;2.33;1.60;;;8.90;99.90;;;;;;5115729;28;20196;-77
2023/10/28 02:30:50;;;;;;;1.40;1.30;;;8.90;99.90;;;;;;5115231;28;20532;-76
2023/10/28 02:33:17;;;;;;;1.90;1.20;;;8.90;99.90;;;;;;5115465;28;20192;-76
2023/10/28 02:35:44;;;;;;;2.23;1.27;;;8.90;99.90;;;;;;5114805;28;20287;-75
2023/10/28 02:38:10;;;;;;;1.90;1.40;;;8.90;99.90;;;;;;5115308;28;20199;-74
2023/10/28 02:40:37;;;;;;;2.40;1.30;;;8.90;99.90;;;;;;5115359;28;20595;-74
2023/10/28 02:43:04;;;;;;;1.23;1.00;;;8.90;99.90;;;;;;5115204;28;20192;-74
2023/10/28 02:45:30;;;;;;;2.60;1.40;;;8.90;99.90;;;;;;5115211;28;20227;-73
2023/10/28 02:47:58;;;;;;;1.60;1.20;;;8.90;99.90;;;;;;5115136;28;20601;-73
2023/10/28 02:50:25;;;;;;;2.70;1.40;;;8.90;99.90;;;;;;5114964;28;20567;-73
2023/10/28 02:52:53;;;;;;;1.87;1.10;;;8.90;99.90;;;;;;5114815;28;20200;-73
2023/10/28 02:55:21;;;;;;;3.50;1.30;;;8.90;99.90;;;;;;5114933;28;20195;-72
2023/10/28 02:57:48;;;;;;;1.40;1.20;;;8.90;99.90;;;;;;5114716;28;20196;-73
2023/10/28 03:00:15;;;;;;;2.93;1.60;;;8.90;99.90;;;;;;5114898;28;20284;-73
2023/10/28 03:02:41;;;;;;;1.07;1.00;;;8.90;99.90;;;;;;5114896;28;20242;-73
2023/10/28 03:05:10;;;;;;;3.20;1.23;;;9.00;99.90;;;;;;5114789;28;20196;-72
2023/10/28 03:07:38;;;;;;;3.17;1.30;;;9.00;99.90;;;;;;5114561;28;20653;-72
2023/10/28 03:10:05;;;;;;;1.33;1.23;;;9.00;99.90;;;;;;5114608;28;20204;-73
2023/10/28 03:12:32;;;;;;;1.70;1.30;;;8.90;99.90;;;;;;5113911;28;20199;-72
2023/10/28 03:14:59;;;;;;;2.63;1.30;;;9.00;99.90;;;;;;5114581;28;20199;-73
2023/10/28 03:17:26;;;;;;;2.70;1.30;;;9.00;99.90;;;;;;5114479;28;20191;-72
2023/10/28 03:19:52;;;;;;;2.33;1.40;;;9.00;99.90;;;;;;5114256;28;20231;-70
2023/10/28 03:22:20;;;;;;;2.00;1.07;;;9.00;99.90;;;;;;5114357;28;20254;-72
2023/10/28 03:24:47;;;;;;;1.43;1.10;;;9.00;99.90;;;;;;5114317;28;20195;-72
2023/10/28 03:27:14;;;;;;;3.07;1.20;;;9.00;99.90;;;;;;5114138;28;20267;-72
2023/10/28 03:29:41;;;;;;;1.87;1.20;;;8.90;99.90;;;;;;5114212;28;20195;-71
2023/10/28 03:32:08;;;;;;;2.17;1.40;;;8.80;99.90;;;;;;5114072;28;20199;-71
2023/10/28 03:34:34;;;;;;;2.27;1.30;;;8.70;99.90;;;;;;5114025;28;20234;-73
2023/10/28 03:37:02;;;;;;;3.23;1.20;;;8.70;99.90;;;;;;5114061;28;20199;-73
2023/10/28 03:39:30;;;;;;;2.30;1.60;;;8.60;99.90;;;;;;5114035;28;20398;-74
2023/10/28 03:41:56;;;;;;;4.23;1.40;;;8.60;99.90;;;;;;5114233;28;20199;-74
2023/10/28 03:44:23;;;;;;;2.00;1.40;;;8.60;99.90;;;;;;5114025;28;20245;-74
2023/10/28 03:46:51;;;;;;;2.23;1.50;;;8.50;99.90;;;;;;5113900;28;20692;-74
2023/10/28 03:49:17;;;;;;;2.60;1.70;;;8.50;99.90;;;;;;5113986;28;20199;-74
2023/10/28 03:51:44;;;;;;;2.73;1.50;;;8.50;99.90;;;;;;5113766;28;20203;-74
2023/10/28 03:54:11;;;;;;;3.03;1.77;;;8.50;99.90;;;;;;5113735;28;20714;-73
2023/10/28 03:56:39;;;;;;;3.17;1.70;;;8.50;99.90;;;;;;5113888;28;20194;-73
2023/10/28 03:59:05;;;;;;;6.03;1.80;;;8.50;99.90;;;;;;5113846;28;20280;-73
2023/10/28 04:01:32;;;;;;;3.67;1.70;;;8.60;99.90;;;;;;5113726;28;20200;-74
2023/10/28 04:03:58;;;;;;;3.47;1.50;;;8.60;99.90;;;;;;5113508;28;20680;-72
2023/10/28 04:06:25;;;;;;;2.50;1.60;;;8.60;99.90;;;;;;5113612;28;20589;-73
2023/10/28 04:08:52;;;;;;;2.83;1.60;;;8.60;99.90;;;;;;5113700;28;20731;-73
2023/10/28 04:11:18;;;;;;;4.47;1.77;;;8.70;99.90;;;;;;5113464;28;20235;-73
2023/10/28 04:13:48;;;;;;;2.80;1.60;;;8.70;99.90;;;;;;5113792;28;20199;-73
2023/10/28 04:16:14;;;;;;;3.43;1.50;;;8.80;99.90;;;;;;5113704;28;20195;-73
2023/10/28 04:18:41;;;;;;;4.37;2.00;;;8.70;99.90;;;;;;5113557;28;20196;-72
2023/10/28 04:21:08;;;;;;;3.80;1.87;;;8.70;99.90;;;;;;5113361;28;20236;-73
2023/10/28 04:23:35;;;;;;;5.93;1.90;;;8.60;99.90;;;;;;5113125;28;20665;-73
2023/10/28 04:26:02;;;;;;;8.47;2.30;;;8.60;99.90;;;;;;5113394;28;20210;-73
2023/10/28 04:28:29;;;;;;;3.63;1.93;;;8.70;99.90;;;;;;5113444;28;20291;-73
2023/10/28 04:30:57;;;;;;;2.90;1.50;;;8.70;99.90;;;;;;5113254;28;20211;-72
2023/10/28 04:33:24;;;;;;;6.57;3.70;;;8.70;99.90;;;;;;5113023;28;20206;-73
2023/10/28 04:35:52;;;;;;;5.87;1.80;;;8.60;99.90;;;;;;5113240;28;20294;-73
2023/10/28 04:38:18;;;;;;;11.77;9.87;;;8.80;99.90;;;;;;5113475;28;20240;-73
2023/10/28 04:40:45;;;;;;;4.00;1.80;;;8.80;99.90;;;;;;5113155;28;20267;-73
2023/10/28 04:43:12;;;;;;;2.67;1.87;;;8.80;99.90;;;;;;5113095;28;20199;-73
2023/10/28 04:45:41;;;;;;;2.47;1.30;;;8.80;99.90;;;;;;5113167;28;20196;-72
2023/10/28 04:48:10;;;;;;;5.20;1.70;;;8.80;99.90;;;;;;5112946;28;20198;-73
2023/10/28 04:50:36;;;;;;;2.50;1.70;;;8.70;99.90;;;;;;5113126;28;20216;-72
2023/10/28 04:53:03;;;;;;;3.03;1.53;;;8.70;99.90;;;;;;5113120;28;20195;-73
2023/10/28 04:55:30;;;;;;;1.50;1.40;;;8.70;99.90;;;;;;5112822;28;20661;-73
2023/10/28 04:57:56;;;;;;;2.83;1.60;;;8.60;99.90;;;;;;5112478;28;20287;-73
2023/10/28 05:00:23;;;;;;;3.20;1.70;;;8.70;99.90;;;;;;5112952;28;20759;-74
2023/10/28 05:02:50;;;;;;;3.90;2.40;;;8.60;99.90;;;;;;5113223;28;20199;-73
2023/10/28 05:05:18;;;;;;;3.97;2.17;;;8.70;99.90;;;;;;5113204;28;20674;-75
2023/10/28 05:07:44;;;;;;;3.27;1.37;;;8.60;99.90;;;;;;5113094;28;20291;-75
2023/10/28 05:10:11;;;;;;;6.87;2.20;;;8.60;99.90;;;;;;5113040;28;20611;-75
2023/10/28 05:12:39;;;;;;;3.80;1.60;;;8.70;99.90;;;;;;5112682;28;20666;-75
2023/10/28 05:15:06;;;;;;;3.03;1.80;;;8.60;99.90;;;;;;5112916;28;20365;-74
2023/10/28 05:17:33;;;;;;;6.80;1.87;;;8.60;99.90;;;;;;5112866;28;20211;-74
2023/10/28 05:20:00;;;;;;;6.17;3.63;;;8.60;99.90;;;;;;5112920;28;20253;-74
2023/10/28 05:22:28;;;;;;;3.67;2.77;;;8.60;99.90;;;;;;5113134;28;20206;-74
2023/10/28 05:24:54;;;;;;;6.47;2.43;;;8.60;99.90;;;;;;5112656;28;20577;-74
2023/10/28 05:27:21;;;;;;;4.60;2.30;;;8.60;99.90;;;;;;5112718;28;20204;-74
2023/10/28 05:29:48;;;;;;;3.47;2.60;;;8.50;99.90;;;;;;5112586;28;20207;-71
2023/10/28 05:32:14;;;;;;;3.43;1.80;;;8.50;99.90;;;;;;5112688;28;20203;-72
2023/10/28 05:34:41;;;;;;;4.73;2.60;;;8.50;99.90;;;;;;5112642;28;20248;-73
2023/10/28 05:37:08;;;;;;;4.13;2.07;;;8.50;99.90;;;;;;5116412;28;20622;-74
2023/10/28 05:39:38;;;;;;;4.40;2.50;;;8.50;99.90;;;;;;5116533;28;20215;-73
2023/10/28 05:42:05;;;;;;;5.63;1.90;;;8.50;99.90;;;;;;5116393;28;20298;-74
2023/10/28 05:44:31;;;;;;;4.70;3.00;;;8.50;99.90;;;;;;5116172;28;20601;-74
2023/10/28 05:46:59;;;;;;;6.43;2.63;;;8.50;99.90;;;;;;5116209;28;20191;-74
2023/10/28 05:49:26;;;;;;;2.90;2.00;;;8.60;99.90;;;;;;5116276;28;20199;-73
2023/10/28 05:51:53;;;;;;;5.50;2.70;;;8.50;99.90;;;;;;5116072;28;20244;-72
2023/10/28 05:54:20;;;;;;;6.80;3.17;;;8.50;99.90;;;;;;5116111;28;20286;-73
2023/10/28 05:56:48;;;;;;;6.50;2.60;;;8.50;99.90;;;;;;5116012;28;20195;-73
2023/10/28 05:59:15;;;;;;;4.57;2.20;;;8.40;99.90;;;;;;5116178;28;20797;-73
2023/10/28 06:01:42;;;;;;;5.30;2.10;;;8.40;99.90;;;;;;5116079;28;20258;-73
2023/10/28 06:04:09;;;;;;;8.33;2.70;;;8.40;99.90;;;;;;5115936;28;20200;-73
2023/10/28 06:06:36;;;;;;;4.37;2.17;;;8.50;99.90;;;;;;5115948;28;20199;-72
2023/10/28 06:09:03;;;;;;;4.23;2.40;;;8.60;99.90;;;;;;5115801;28;20211;-72
2023/10/28 06:11:29;;;;;;;6.33;1.90;;;8.60;99.90;;;;;;5115919;28;20240;-73
2023/10/28 06:13:58;;;;;;;4.77;2.23;;;8.60;99.90;;;;;;5115759;28;20196;-72
2023/10/28 06:16:25;;;;;;;6.00;2.20;;;8.70;99.90;;;;;;5115669;28;20207;-74
2023/10/28 06:18:52;;;;;;;4.57;2.40;;;8.80;99.90;;;;;;5115608;28;20203;-73
2023/10/28 06:21:18;;;;;;;3.87;2.13;;;8.80;99.90;;;;;;5115565;28;20223;-74
2023/10/28 06:23:45;;;;;;;6.47;2.20;;;8.80;99.90;;;;;;5115614;28;20204;-74
2023/10/28 06:26:12;;;;;;;4.27;2.33;;;8.80;99.90;;;;;;5115792;28;20355;-72
2023/10/28 06:28:38;;;;;;;4.67;2.30;;;8.80;99.90;;;;;;5115375;28;20256;-74
2023/10/28 06:31:06;;;;;;;7.00;2.60;;;8.90;99.90;;;;;;5115358;28;20204;-73
2023/10/28 06:33:33;;;;;;;6.73;3.07;;;8.90;99.90;;;;;;5115318;28;20204;-73
2023/10/28 06:36:00;;;;;;;4.37;2.20;;;8.80;99.90;;;;;;5115306;28;20195;-73
2023/10/28 06:38:28;;;;;;;5.80;2.37;;;8.80;99.90;;;;;;5115347;28;20204;-72
2023/10/28 06:40:54;;;;;;;3.80;2.67;;;8.70;99.90;;;;;;5115164;28;20257;-73
2023/10/28 06:43:23;;;;;;;7.77;5.83;;;8.70;99.90;;;;;;5115139;28;20203;-73
2023/10/28 06:45:49;;;;;;;10.30;7.67;;;8.70;99.90;;;;;;5114825;28;20200;-72
2023/10/28 06:48:17;;;;;;;5.77;2.40;;;8.90;99.90;;;;;;5114661;28;20237;-73
2023/10/28 06:50:45;;;;;;;4.13;2.20;;;9.00;99.90;;;;;;5114635;28;20196;-74
2023/10/28 06:53:11;;;;;;;7.03;2.30;;;9.20;99.90;;;;;;5114672;28;20559;-72
2023/10/28 06:55:38;;;;;;;5.47;2.40;;;9.20;99.90;;;;;;5115018;28;20199;-73
2023/10/28 06:58:04;;;;;;;6.93;2.37;;;9.30;99.90;;;;;;5114882;28;20199;-73
2023/10/28 07:00:31;;;;;;;6.67;2.43;;;9.40;99.90;;;;;;5114537;28;20599;-72
2023/10/28 07:02:58;;;;;;;3.80;1.90;;;9.50;99.90;;;;;;5114716;28;20245;-73
2023/10/28 07:05:26;;;;;;;3.20;2.03;;;9.60;99.90;;;;;;5114533;28;20235;-73
2023/10/28 07:07:54;;;;;;;4.20;2.40;;;9.60;99.90;;;;;;5114510;28;20669;-73
2023/10/28 07:10:22;;;;;;;6.10;2.70;;;9.70;99.90;;;;;;5114921;28;20295;-72
2023/10/28 07:12:49;;;;;;;5.97;2.07;;;9.70;99.90;;;;;;5113864;28;20253;-74
2023/10/28 07:15:17;;;;;;;6.67;2.53;;;9.70;99.90;;;;;;5114527;28;20200;-73
2023/10/28 07:17:44;;;;;;;6.60;2.33;;;9.80;99.90;;;;;;5114082;28;20651;-73
2023/10/28 07:20:11;;;;;;;6.53;2.90;;;9.90;99.90;;;;;;5114261;28;20226;-73
2023/10/28 07:22:41;;;;;;;6.17;2.00;;;10.00;99.90;;;;;;5114126;28;20203;-73
2023/10/28 07:25:09;;;;;;;5.27;3.00;;;10.10;99.90;;;;;;5114587;28;20195;-73
2023/10/28 07:27:36;;;;;;;5.30;2.20;;;10.00;99.90;;;;;;5114377;28;20286;-73
2023/10/28 07:30:03;;;;;;;4.93;2.53;;;10.00;99.90;;;;;;5114161;28;20200;-73
2023/10/28 07:32:30;;;;;;;5.90;3.30;;;10.00;99.90;;;;;;5114037;28;20269;-73
2023/10/28 07:34:57;;;;;;;2.90;2.40;;;10.00;99.90;;;;;;5113833;28;20230;-73
2023/10/28 07:37:24;;;;;;;6.00;2.67;;;10.10;99.90;;;;;;5113889;28;20221;-72
2023/10/28 07:39:52;;;;;;;5.13;2.00;;;10.20;99.90;;;;;;5113868;28;20612;-72
2023/10/28 07:42:19;;;;;;;4.10;2.40;;;10.10;99.90;;;;;;5113965;28;20195;-73
2023/10/28 07:44:45;;;;;;;3.77;2.30;;;10.20;99.90;;;;;;5113875;28;20199;-74
2023/10/28 07:47:12;;;;;;;8.67;2.17;;;10.20;99.90;;;;;;5121312;27;20199;-73
2023/10/28 07:49:38;;;;;;;3.40;1.67;;;10.20;99.90;;;;;;5134438;27;20202;-73
2023/10/28 07:52:07;;;;;;;5.30;2.50;;;10.20;99.90;;;;;;5134175;27;20199;-73
2023/10/28 07:54:34;;;;;;;5.67;2.53;;;10.20;99.90;;;;;;5134251;27;20228;-73
2023/10/28 07:57:02;;;;;;;5.10;2.30;;;10.20;99.90;;;;;;5134265;27;20259;-73
2023/10/28 07:59:28;;;;;;;5.10;1.80;;;10.20;99.90;;;;;;5133637;27;20202;-73
2023/10/28 08:01:55;;;;;;;5.67;1.80;;;10.20;99.90;;;;;;5133734;27;20693;-73
2023/10/28 08:04:22;;;;;;;4.53;1.73;;;10.30;99.90;;;;;;5134284;27;20199;-73
2023/10/28 08:06:50;;;;;;;3.60;1.90;;;10.30;99.90;;;;;;5134022;27;20650;-73
2023/10/28 08:09:17;;;;;;;4.63;1.90;;;10.30;99.90;;;;;;5134089;27;20199;-73
2023/10/28 08:11:44;;;;;;;8.23;2.93;;;10.50;99.90;;;;;;5133992;27;20247;-73
2023/10/28 08:14:13;;;;;;;9.43;3.90;;;10.50;99.90;;;;;;5133994;27;20199;-75
2023/10/28 08:16:40;;;;;;;3.67;1.90;;;10.40;99.90;;;;;;5133862;27;20198;-76
2023/10/28 08:19:08;;;;;;;4.23;2.10;;;10.20;99.90;;;;;;5134045;27;20191;-75
2023/10/28 08:21:34;;;;;;;5.43;2.10;;;10.20;99.90;;;;;;5133609;27;20712;-75
2023/10/28 08:24:01;;;;;;;4.80;2.07;;;10.20;99.90;;;;;;5134063;27;20195;-73
2023/10/28 08:26:28;;;;;;;5.10;2.33;;;10.40;99.90;;;;;;5134119;27;20283;-74
2023/10/28 08:28:54;;;;;;;4.57;2.60;;;10.60;99.90;;;;;;5133877;27;20195;-74
2023/10/28 08:31:22;;;;;;;4.33;2.00;;;10.90;99.90;;;;;;5133686;27;20605;-73
2023/10/28 08:33:50;;;;;;;7.43;2.07;;;11.10;99.90;;;;;;5133523;27;20234;-74
2023/10/28 08:36:17;;;;;;;2.80;1.67;;;11.40;99.90;;;;;;5133714;28;20202;-73
2023/10/28 08:38:44;;;;;;;4.97;2.13;;;11.70;99.90;;;;;;5133699;28;20206;-73
2023/10/28 08:41:11;;;;;;;3.10;1.80;;;11.80;99.90;;;;;;5133567;28;20223;-73
2023/10/28 08:43:38;;;;;;;5.17;1.97;;;11.80;99.90;;;;;;5133548;28;20191;-73
2023/10/28 08:46:05;;;;;;;1.90;1.50;;;11.70;99.90;;;;;;5133736;28;20256;-73
2023/10/28 08:48:37;;;;;;;2.77;1.73;;;11.60;99.90;;;;;;5133675;28;20202;-73
2023/10/28 08:51:07;;;;;;;4.23;1.97;;;11.80;99.90;;;;;;5133576;28;20194;-74
2023/10/28 08:53:35;;;;;;;7.57;2.10;;;11.90;99.90;;;;;;5133293;28;20717;-74
2023/10/28 08:56:03;;;;;;;5.03;3.17;;;12.00;99.90;;;;;;5133441;28;20596;-74
2023/10/28 08:58:30;;;;;;;5.63;2.27;;;12.20;99.90;;;;;;5133644;28;20305;-74
2023/10/28 09:01:01;;;;;;;3.47;1.77;;;12.40;99.90;;;;;;5133578;28;20219;-73
2023/10/28 09:03:29;;;;;;;3.97;2.83;;;12.60;99.90;;;;;;5133654;28;20233;-73
2023/10/28 09:05:59;;;;;;;4.93;2.07;;;12.90;99.90;;;;;;5133485;28;20199;-73
2023/10/28 09:08:27;;;;;;;7.83;2.00;;;12.90;99.90;;;;;;5133733;28;20195;-73
2023/10/28 09:10:54;;;;;;;4.93;2.27;;;12.90;99.90;;;;;;5135957;27;20199;-73
2023/10/28 09:13:21;;;;;;;3.40;1.90;;;12.80;99.90;;;;;;5137530;27;20206;-74
2023/10/28 09:15:48;;;;;;;4.20;2.00;;;12.90;99.90;;;;;;5137474;27;20290;-73
2023/10/28 09:18:16;;;;;;;3.97;2.53;;;12.80;99.90;;;;;;5137278;27;20195;-73
2023/10/28 09:20:43;;;;;;;4.47;2.03;;;13.00;99.90;;;;;;5137177;27;20326;-73
2023/10/28 09:23:13;;;;;;;3.03;1.80;;;13.10;99.90;;;;;;5137308;27;20699;-74
2023/10/28 09:25:41;;;;;;;3.80;2.07;;;13.10;99.90;;;;;;5136642;27;20654;-74
2023/10/28 09:28:15;;;;;;;3.17;2.07;;;13.20;99.90;;;;;;5137260;27;20195;-73
2023/10/28 09:30:46;;;;;;;3.90;1.90;;;13.20;99.90;;;;;;5137075;27;20194;-74
2023/10/28 09:33:13;;;;;;;4.30;2.10;;;13.20;99.90;;;;;;5136974;27;20539;-73
2023/10/28 09:35:43;;;;;;;5.20;1.83;;;13.40;99.90;;;;;;5137027;27;20276;-74
2023/10/28 09:38:12;;;;;;;3.20;1.93;;;13.40;99.90;;;;;;5137160;27;20199;-73
2023/10/28 09:40:39;;;;;;;2.30;1.60;;;13.50;99.90;;;;;;5136931;27;20228;-74
2023/10/28 09:43:07;;;;;;;5.73;1.90;;;13.70;99.90;;;;;;5136901;27;20252;-73
2023/10/28 09:45:35;;;;;;;4.97;2.10;;;13.70;99.90;;;;;;5136780;27;20202;-74
2023/10/28 09:48:09;;;;;;;3.10;1.57;;;13.60;99.90;;;;;;5136663;27;20199;-73
2023/10/28 09:50:44;;;;;;;3.10;1.83;;;13.60;99.90;;;;;;5136854;27;20199;-74
2023/10/28 09:53:16;;;;;;;4.37;1.57;;;14.10;99.90;;;;;;5136754;27;20533;-75
2023/10/28 09:55:45;;;;;;;5.65;1.80;;;14.20;99.90;;;;;;5136727;27;20281;-74
2023/10/28 09:58:18;;;;;;;2.47;1.63;;;14.40;99.90;;;;;;5136539;27;20748;-74
2023/10/28 10:00:48;;;;;;;4.57;1.88;;;14.80;99.90;;;;;;5136432;27;20248;-74
2023/10/28 10:03:30;;;;;;;3.53;1.40;;;15.30;99.90;;;;;;5136809;27;20210;-73
2023/10/28 10:05:57;;;;;;;3.35;2.03;;;15.10;99.90;;;;;;5136605;27;20231;-74
2023/10/28 10:08:25;;;;;;;4.95;2.25;;;15.00;99.90;;;;;;5136607;27;20249;-73
2023/10/28 10:10:55;;;;;;;4.13;1.88;;;15.10;99.90;;;;;;5136547;27;20326;-74
2023/10/28 10:13:22;;;;;;;2.67;1.48;;;15.50;99.90;;;;;;5136206;27;20248;-74
2023/10/28 10:15:55;;;;;;;4.28;1.77;;;16.50;99.90;;;;;;5130725;27;20193;-74
2023/10/28 10:18:31;;;;;;;5.38;1.83;;;17.00;99.90;;;;;;5117647;28;20199;-75
2023/10/28 10:21:05;;;;;;;4.18;2.05;;;16.60;99.90;;;;;;5117071;28;20241;-75
2023/10/28 10:23:43;;;;;;;3.08;1.90;;;16.10;99.90;;;;;;5115601;28;20287;-75
2023/10/28 10:26:21;;;;;;;5.88;2.00;;;15.80;99.90;;;;;;5115742;28;20199;-75
2023/10/28 10:28:48;;;;;;;3.50;1.45;;;17.00;99.90;;;;;;5115653;28;20200;-75
2023/10/28 10:31:18;;;;;;;2.50;1.48;;;15.90;99.90;;;;;;5120303;28;20199;-75
2023/10/28 10:33:45;;;;;;;4.38;1.70;;;16.10;99.90;;;;;;5117447;28;20314;-75
2023/10/28 10:36:17;;;;;;;2.63;1.75;;;16.60;99.90;;;;;;5116084;28;20707;-75
2023/10/28 10:38:45;;;;;;;5.10;1.90;;;15.70;99.90;;;;;;5115648;28;20302;-75
2023/10/28 10:41:26;;;;;;;6.85;1.95;;;15.20;99.90;;;;;;5115617;28;20389;-74
2023/10/28 10:43:53;;;;;;;3.20;1.63;;;14.50;99.90;;;;;;5115336;28;20260;-74
2023/10/28 10:46:20;;;;;;;4.17;1.63;;;14.50;99.90;;;;;;5115714;28;20203;-74
2023/10/28 10:48:47;;;;;;;4.13;1.90;;;14.40;99.90;;;;;;5116461;28;20200;-75
2023/10/28 10:51:15;;;;;;;2.50;1.60;;;14.30;99.90;;;;;;5116534;28;20199;-74
2023/10/28 10:53:43;;;;;;;4.43;1.63;;;14.40;99.90;;;;;;5118418;28;20287;-74
2023/10/28 10:56:20;;;;;;;2.50;1.50;;;14.50;99.90;;;;;;5117578;28;20282;-75
2023/10/28 10:58:47;;;;;;;2.40;1.47;;;14.40;99.90;;;;;;5115685;28;20191;-74
2023/10/28 11:01:15;;;;;;;4.80;1.80;;;14.20;99.90;;;;;;5115257;28;20227;-75
2023/10/28 11:03:42;;;;;;;4.00;1.43;;;14.20;99.90;;;;;;5115081;28;20195;-75
2023/10/28 11:06:08;;;;;;;3.07;1.70;;;14.20;99.90;;;;;;5114960;28;20196;-75
2023/10/28 11:08:35;;;;;;;3.47;1.70;;;15.20;99.90;;;;;;5114785;28;20585;-75
2023/10/28 11:11:03;;;;;;;4.30;2.10;;;15.50;99.90;;;;;;5114757;28;20274;-74
2023/10/28 11:13:31;;;;;;;5.20;1.85;;;16.20;99.90;;;;;;5114426;28;20206;-74
2023/10/28 11:15:59;;;;;;;3.22;2.00;;;16.10;99.90;;;;;;5114721;28;20225;-75
2023/10/28 11:18:26;;;;;;;3.80;2.25;;;16.50;99.90;;;;;;5114620;28;20203;-74
2023/10/28 11:20:53;;;;;;;3.88;1.98;;;16.10;99.90;;;;;;5114333;27;20654;-74
2023/10/28 11:23:20;;;;;;;3.50;1.65;;;15.50;99.90;;;;;;5114446;28;20314;-74
2023/10/28 11:25:49;;;;;;;3.70;1.85;;;15.40;99.90;;;;;;5114336;27;20597;-74
2023/10/28 11:28:16;;;;;;;4.17;2.10;;;14.90;99.90;;;;;;5114419;28;20746;-75
2023/10/28 11:30:51;;;;;;;4.60;1.97;;;15.00;99.90;;;;;;5114515;28;20196;-75
2023/10/28 11:33:18;;;;;;;7.03;3.20;;;15.00;99.90;;;;;;5112984;28;20435;-75
2023/10/28 11:35:44;;;;;;;5.83;1.90;;;15.10;99.90;;;;;;5113853;28;20227;-74
2023/10/28 11:38:11;;;;;;;4.80;2.00;;;14.90;99.90;;;;;;5114210;28;20700;-74
2023/10/28 11:40:38;;;;;;;3.33;1.70;;;14.70;99.90;;;;;;5114006;27;20233;-75
2023/10/28 11:43:05;;;;;;;5.47;1.70;;;14.60;99.90;;;;;;5113752;28;20276;-75
2023/10/28 11:45:32;;;;;;;3.47;1.73;;;14.40;99.90;;;;;;5113864;28;20654;-74
2023/10/28 11:48:00;;;;;;;4.87;1.73;;;14.60;99.90;;;;;;5114149;28;20196;-74
2023/10/28 11:50:27;;;;;;;7.27;2.20;;;14.90;99.90;;;;;;5113934;28;20196;-73
2023/10/28 11:52:53;;;;;;;5.77;1.83;;;14.90;99.90;;;;;;5113662;28;20195;-73
2023/10/28 11:55:20;;;;;;;3.57;1.70;;;14.90;99.90;;;;;;5113752;28;20659;-73
2023/10/28 11:57:47;;;;;;;3.07;1.77;;;14.40;99.90;;;;;;5113916;28;20283;-74
2023/10/28 12:00:14;;;;;;;4.50;1.73;;;14.30;99.90;;;;;;5113864;28;20257;-74
2023/10/28 12:02:41;;;;;;;3.80;1.73;;;14.20;99.90;;;;;;5113334;28;20220;-74
2023/10/28 12:05:10;;;;;;;3.93;2.00;;;14.20;99.90;;;;;;5113662;28;20200;-74
2023/10/28 12:07:36;;;;;;;4.67;1.83;;;14.20;99.90;;;;;;5113369;28;20753;-74
2023/10/28 12:10:06;;;;;;;2.90;2.03;;;14.20;99.90;;;;;;5113716;28;20249;-74
2023/10/28 12:12:33;;;;;;;3.67;2.13;;;14.10;99.90;;;;;;5113382;28;20707;-74
2023/10/28 12:15:00;;;;;;;5.00;1.87;;;14.20;99.90;;;;;;5113590;28;20199;-74
2023/10/28 12:17:27;;;;;;;6.10;2.07;;;14.20;99.90;;;;;;5113498;28;20196;-74
2023/10/28 12:19:53;;;;;;;4.90;1.92;;;14.10;99.90;;;;;;5112863;28;20442;-75
2023/10/28 12:22:21;;;;;;;4.63;1.73;;;14.10;99.90;;;;;;5113155;28;20687;-74
2023/10/28 12:24:48;;;;;;;8.80;2.00;;;14.00;99.90;;;;;;5113449;28;20199;-73
2023/10/28 12:27:15;;;;;;;4.83;1.80;;;14.10;99.90;;;;;;5113349;28;20199;-73
2023/10/28 12:29:44;;;;;;;3.10;1.60;;;13.90;99.90;;;;;;5113328;28;20195;-74
2023/10/28 12:32:11;;;;;;;3.63;1.67;;;13.90;99.90;;;;;;5113388;28;20204;-73
2023/10/28 12:34:38;;;;;;;4.37;2.00;;;14.00;99.90;;;;;;5113080;28;20250;-73
2023/10/28 12:37:04;;;;;;;3.87;2.03;;;13.90;99.90;;;;;;5113093;28;20200;-73
2023/10/28 12:39:33;;;;;;;5.63;2.00;;;14.10;99.90;;;;;;5113395;28;20192;-74
2023/10/28 12:42:01;;;;;;;4.87;1.90;;;14.10;99.90;;;;;;5113051;28;20223;-74
2023/10/28 12:44:28;;;;;;;3.07;1.70;;;14.10;99.90;;;;;;5114608;28;20199;-73
2023/10/28 12:46:55;;;;;;;2.77;1.70;;;14.10;99.90;;;;;;5117203;27;20203;-73
2023/10/28 12:49:22;;;;;;;4.50;1.80;;;14.00;99.90;;;;;;5117002;28;20431;-74
2023/10/28 12:51:48;;;;;;;4.43;2.17;;;14.00;99.90;;;;;;5117111;28;20203;-74
2023/10/28 12:54:15;;;;;;;5.13;1.97;;;13.90;99.90;;;;;;5117276;28;20196;-74